Weather at Gürpınar Helipad

Public forecast

Using degrees Celsius for public forecast. Weather courtesy of forecast.io.

Closest aviation weather report (METAR) to Gürpınar Helipad

Closest report is Nicosia (Lefkoşa) Ercan International Airport, 19.2 nm (35.6 km) ESE.

2024/07/24 21:20 (retrieved 32 minutes ago)

LCEN 242120Z 27008KT 9999 FEW020 28/24 Q1001 NOSIG RMK RWY11R 29007KT RWY29R 29008KT RWY11L 30007KT

Closest aviation forecast (TAF) to Gürpınar Helipad

Closest forecast is Nicosia (Lefkoşa) Ercan International Airport, 19.2 nm (35.6 km) ESE.

2024/07/24 18:00 (retrieved 4 hours ago)

TAF LCEN 241640Z 2418/2518 29012KT 9999 FEW020 PROB30 TEMPO 2500/2504 VRB02KT 3000 BR BKN008